< < Back
Terminal Aerodrome Forecast


Current Version              Previous Versions:   1  2  3  4  5  6  7  8  9  

Terminal Aerodrome Forecast

516
FTUS42 KFFC 281735
TAFPDK
TAF
KPDK 281735Z 2818/2918 24003KT P6SM SKC
     FM290000 00000KT P6SM SKC
     FM291600 19004KT P6SM SCT250=

Latest METAR

221
SAUS70 KWBC 290300 RRF
MTRPDK
METAR KPDK 290253Z 00000KT 10SM CLR 01/M05 A3027 RMK AO2 SLP267
T00061050 58004


USA.gov is the U.S. government's official web portal to all federal, state and local government web resources and services.